Time;durP1;ratioP1;P1;durP2;ratioP2;P2;SDS_P1;SDS_P2;PMS_P1;PMS_P2;Temp;Humidity;BMP_temperature;BMP_pressure;BME280_temperature;BME280_humidity;BME280_pressure;Samples;Min_cycle;Max_cycle;Signal;HPM_P1;HPM_P2
2022/07/11 00:01:11;;;;;;;3.47;3.27;;;19.80;99.90;;;;;;5010766;28;20760;-67
2022/07/11 00:03:38;;;;;;;3.70;3.50;;;19.70;99.90;;;;;;5008043;28;20711;-67
2022/07/11 00:06:05;;;;;;;3.73;3.43;;;19.70;99.90;;;;;;5014199;28;20733;-66
2022/07/11 00:08:32;;;;;;;3.23;3.03;;;19.70;99.90;;;;;;5011313;28;20614;-66
2022/07/11 00:10:59;;;;;;;3.70;3.40;;;19.80;99.90;;;;;;5011010;28;20621;-67
2022/07/11 00:13:25;;;;;;;3.03;2.83;;;19.80;99.90;;;;;;5011983;28;20642;-67
2022/07/11 00:15:52;;;;;;;2.97;2.77;;;19.70;99.90;;;;;;5007243;28;21118;-67
2022/07/11 00:18:19;;;;;;;3.80;3.50;;;19.70;99.90;;;;;;5018598;28;20709;-67
2022/07/11 00:20:46;;;;;;;3.33;3.07;;;19.70;99.90;;;;;;5009981;28;20760;-67
2022/07/11 00:23:13;;;;;;;3.70;2.90;;;19.60;99.90;;;;;;5010821;28;20680;-67
2022/07/11 00:25:40;;;;;;;5.43;3.70;;;19.50;99.90;;;;;;5021862;28;20640;-67
2022/07/11 00:28:07;;;;;;;2.87;2.77;;;19.50;99.90;;;;;;5010801;28;20618;-67
2022/07/11 00:30:34;;;;;;;3.13;2.93;;;19.40;99.90;;;;;;5010370;28;20638;-67
2022/07/11 00:33:01;;;;;;;4.00;3.63;;;19.40;99.90;;;;;;5009456;28;20665;-67
2022/07/11 00:35:28;;;;;;;3.97;3.67;;;19.40;99.90;;;;;;5007562;28;20736;-67
2022/07/11 00:37:54;;;;;;;3.50;3.17;;;19.40;99.90;;;;;;5008789;28;20202;-67
2022/07/11 00:40:21;;;;;;;3.10;2.90;;;19.40;99.90;;;;;;5009362;28;21399;-67
2022/07/11 00:42:48;;;;;;;3.83;3.53;;;19.40;99.90;;;;;;5010325;28;21034;-67
2022/07/11 00:45:15;;;;;;;3.57;3.27;;;19.30;99.90;;;;;;5010709;28;20738;-67
2022/07/11 00:47:41;;;;;;;6.00;4.07;;;19.20;99.90;;;;;;5010776;28;20614;-67
2022/07/11 00:50:09;;;;;;;3.70;3.20;;;19.10;99.90;;;;;;5009693;28;20732;-67
2022/07/11 00:52:36;;;;;;;3.80;3.40;;;19.10;99.90;;;;;;5014170;28;20667;-67
2022/07/11 00:55:04;;;;;;;3.73;3.53;;;19.10;99.90;;;;;;5010217;28;20706;-67
2022/07/11 00:57:33;;;;;;;3.70;3.37;;;19.00;99.90;;;;;;5012959;28;20625;-67
2022/07/11 01:00:00;;;;;;;5.13;3.53;;;19.00;99.90;;;;;;5012840;28;20705;-67
2022/07/11 01:02:26;;;;;;;4.60;3.75;;;19.00;99.90;;;;;;5010007;28;20625;-67
2022/07/11 01:04:53;;;;;;;3.50;3.20;;;19.00;99.90;;;;;;5013366;28;20282;-67
2022/07/11 01:07:20;;;;;;;4.23;3.23;;;18.90;99.90;;;;;;5014337;28;20633;-64
2022/07/11 01:09:49;;;;;;;3.43;3.23;;;18.90;99.90;;;;;;5013689;28;20617;-67
2022/07/11 01:12:17;;;;;;;3.30;3.10;;;18.90;99.90;;;;;;5013643;28;20618;-67
2022/07/11 01:14:54;;;;;;;3.30;3.10;;;18.90;99.90;;;;;;5013642;28;20648;-67
2022/07/11 01:17:21;;;;;;;3.97;3.60;;;18.80;99.90;;;;;;5013869;28;20637;-63
2022/07/11 01:19:48;;;;;;;3.80;3.50;;;18.80;99.90;;;;;;5013854;28;20656;-67
2022/07/11 01:22:15;;;;;;;3.80;3.50;;;18.80;99.90;;;;;;5012884;28;20665;-68
2022/07/11 01:24:43;;;;;;;4.77;3.70;;;18.80;99.90;;;;;;5012455;28;20634;-67
2022/07/11 01:27:10;;;;;;;3.60;3.40;;;18.80;99.90;;;;;;5012967;28;20616;-67
2022/07/11 01:29:38;;;;;;;3.60;3.40;;;18.70;99.90;;;;;;5011704;28;20617;-68
2022/07/11 01:32:05;;;;;;;3.57;3.37;;;18.70;99.90;;;;;;5014588;28;20644;-68
2022/07/11 01:34:32;;;;;;;4.33;3.97;;;18.70;99.90;;;;;;5013000;28;21294;-67
2022/07/11 01:36:59;;;;;;;3.97;3.50;;;18.70;99.90;;;;;;5013701;28;20641;-67
2022/07/11 01:39:29;;;;;;;3.43;3.23;;;18.70;99.90;;;;;;5014098;28;20720;-67
2022/07/11 01:41:59;;;;;;;4.10;3.70;;;18.80;99.90;;;;;;5011916;28;20660;-67
2022/07/11 01:44:26;;;;;;;3.57;3.27;;;18.80;99.90;;;;;;5013650;28;20640;-67
2022/07/11 01:46:53;;;;;;;3.60;3.30;;;18.80;99.90;;;;;;5012234;28;21058;-68
2022/07/11 01:49:19;;;;;;;3.38;3.17;;;18.90;99.90;;;;;;5013728;28;20732;-67
2022/07/11 01:51:47;;;;;;;3.70;3.40;;;18.90;99.90;;;;;;5011989;28;20198;-67
2022/07/11 01:54:14;;;;;;;3.63;3.23;;;19.00;99.90;;;;;;5013565;28;20641;-67
2022/07/11 01:56:41;;;;;;;3.50;3.30;;;19.00;99.90;;;;;;5012158;28;20632;-68
2022/07/11 01:59:07;;;;;;;3.47;3.30;;;19.10;99.90;;;;;;5013854;28;20614;-68
2022/07/11 02:01:34;;;;;;;3.77;3.47;;;19.10;99.90;;;;;;5012503;28;21278;-67
2022/07/11 02:04:01;;;;;;;3.13;3.00;;;19.10;99.90;;;;;;5012334;28;20647;-68
2022/07/11 02:06:28;;;;;;;3.47;3.27;;;19.10;99.90;;;;;;5012440;28;20642;-68
2022/07/11 02:08:55;;;;;;;3.70;3.40;;;19.00;99.90;;;;;;5012767;28;20725;-68
2022/07/11 02:11:22;;;;;;;3.30;3.10;;;19.00;99.90;;;;;;5012376;28;20644;-68
2022/07/11 02:13:48;;;;;;;6.40;3.43;;;19.10;99.90;;;;;;5012734;28;20668;-67
2022/07/11 02:16:17;;;;;;;3.17;2.87;;;19.10;99.90;;;;;;5012996;28;20627;-68
2022/07/11 02:18:44;;;;;;;3.87;3.37;;;19.10;99.90;;;;;;5011110;28;20743;-68
2022/07/11 02:21:12;;;;;;;2.70;2.57;;;19.10;99.90;;;;;;5012385;28;21247;-67
2022/07/11 02:23:39;;;;;;;4.50;3.28;;;19.10;99.90;;;;;;5011770;28;21032;-68
2022/07/11 02:26:06;;;;;;;3.60;3.30;;;19.00;99.90;;;;;;5013867;28;20194;-67
2022/07/11 02:28:34;;;;;;;3.60;3.40;;;19.00;99.90;;;;;;5011303;28;21215;-67
2022/07/11 02:31:00;;;;;;;3.80;3.50;;;19.00;99.90;;;;;;5012194;28;20624;-67
2022/07/11 02:33:28;;;;;;;3.27;3.07;;;18.90;99.90;;;;;;5012388;28;20764;-67
2022/07/11 02:35:54;;;;;;;4.27;3.87;;;18.90;99.90;;;;;;5012093;28;21077;-67
2022/07/11 02:38:21;;;;;;;7.23;3.97;;;19.00;99.90;;;;;;5012063;28;20649;-64
2022/07/11 02:40:48;;;;;;;3.97;3.67;;;19.00;99.90;;;;;;5013093;28;20648;-67
2022/07/11 02:43:15;;;;;;;4.50;4.10;;;19.10;99.90;;;;;;5012188;28;20649;-64
2022/07/11 02:45:42;;;;;;;3.45;3.25;;;19.10;99.90;;;;;;5011107;28;20718;-68
2022/07/11 02:48:09;;;;;;;3.60;3.30;;;19.20;99.90;;;;;;5009471;28;20818;-67
2022/07/11 02:50:36;;;;;;;3.87;3.57;;;19.20;99.90;;;;;;5003636;28;20641;-68
2022/07/11 02:53:03;;;;;;;4.00;3.60;;;19.20;99.90;;;;;;5010229;28;20657;-67
2022/07/11 02:55:30;;;;;;;3.83;3.50;;;19.20;99.90;;;;;;5011714;28;20638;-67
2022/07/11 02:57:57;;;;;;;3.00;2.87;;;19.30;99.90;;;;;;5011877;28;20626;-67
2022/07/11 03:00:25;;;;;;;3.33;3.07;;;19.30;99.90;;;;;;5009887;28;20713;-66
2022/07/11 03:02:52;;;;;;;2.93;2.73;;;19.30;99.90;;;;;;5010002;28;20664;-67
2022/07/11 03:05:18;;;;;;;3.57;3.17;;;19.30;99.90;;;;;;5011365;28;20732;-64
2022/07/11 03:07:46;;;;;;;3.17;2.90;;;19.30;99.90;;;;;;5011862;28;20708;-67
2022/07/11 03:10:12;;;;;;;3.00;2.80;;;19.40;99.90;;;;;;5012262;28;21168;-67
2022/07/11 03:12:40;;;;;;;3.10;2.97;;;19.30;99.90;;;;;;5011928;28;20306;-68
2022/07/11 03:15:07;;;;;;;3.33;3.13;;;19.40;99.90;;;;;;5010435;28;20648;-67
2022/07/11 03:17:35;;;;;;;5.13;2.80;;;19.30;99.90;;;;;;5011433;28;21251;-68
2022/07/11 03:20:05;;;;;;;3.33;3.13;;;19.40;99.90;;;;;;5008806;28;20213;-68
2022/07/11 03:22:32;;;;;;;3.13;2.77;;;19.40;99.90;;;;;;5011838;28;20670;-67
2022/07/11 03:25:00;;;;;;;3.27;3.03;;;19.40;99.90;;;;;;5010657;28;20624;-68
2022/07/11 03:27:27;;;;;;;3.10;2.90;;;19.40;99.90;;;;;;5011373;28;20661;-67
2022/07/11 03:29:54;;;;;;;3.43;3.10;;;19.40;99.90;;;;;;5011395;28;20633;-68
2022/07/11 03:32:22;;;;;;;3.33;3.00;;;19.40;99.90;;;;;;5012351;28;20988;-67
2022/07/11 03:37:40;;;;;;;3.60;3.23;;;19.40;99.90;;;;;;5011714;28;20632;-67
2022/07/11 03:40:08;;;;;;;3.40;3.10;;;19.50;99.90;;;;;;5011345;28;20639;-67
2022/07/11 03:42:35;;;;;;;4.20;3.10;;;19.50;99.90;;;;;;5010488;28;20673;-67
2022/07/11 03:45:01;;;;;;;3.20;3.00;;;19.50;99.90;;;;;;5011303;28;20668;-67
2022/07/11 03:47:28;;;;;;;5.90;3.17;;;19.40;99.90;;;;;;5010713;28;20985;-68
2022/07/11 03:49:55;;;;;;;3.38;3.08;;;19.50;99.90;;;;;;5009369;28;20199;-68
2022/07/11 03:52:22;;;;;;;3.40;3.20;;;19.40;99.90;;;;;;5011609;28;20207;-68
2022/07/11 03:54:48;;;;;;;3.50;3.20;;;19.40;99.90;;;;;;5010240;28;20730;-68
2022/07/11 03:57:15;;;;;;;3.10;2.90;;;19.40;99.90;;;;;;5011502;28;20221;-67
2022/07/11 03:59:42;;;;;;;3.28;3.08;;;19.40;99.90;;;;;;5008843;28;20724;-67
2022/07/11 04:02:09;;;;;;;3.30;3.00;;;19.40;99.90;;;;;;5010033;28;20219;-68
2022/07/11 04:04:36;;;;;;;3.93;3.60;;;19.40;99.90;;;;;;5011727;28;20653;-67
2022/07/11 04:07:03;;;;;;;3.40;3.10;;;19.40;99.90;;;;;;5010695;28;20628;-67
2022/07/11 04:09:31;;;;;;;3.70;3.40;;;19.40;99.90;;;;;;5009104;28;20725;-68
2022/07/11 04:11:57;;;;;;;3.20;2.87;;;19.40;99.90;;;;;;5010509;28;20708;-67
2022/07/11 04:14:24;;;;;;;3.53;3.13;;;19.40;99.90;;;;;;5009991;28;21112;-68
2022/07/11 04:16:51;;;;;;;3.33;3.07;;;19.40;99.90;;;;;;5011731;28;20647;-68
2022/07/11 04:19:18;;;;;;;2.72;2.55;;;19.50;99.90;;;;;;5007353;28;20645;-68
2022/07/11 04:21:45;;;;;;;3.53;2.70;;;19.50;99.90;;;;;;5010221;28;20622;-68
2022/07/11 04:24:12;;;;;;;3.45;3.13;;;19.50;99.90;;;;;;5008986;28;20226;-67
2022/07/11 04:26:38;;;;;;;3.67;2.78;;;19.50;99.90;;;;;;5015226;28;20618;-69
2022/07/11 04:29:05;;;;;;;3.40;3.20;;;19.60;99.90;;;;;;5009305;28;20214;-64
2022/07/11 04:31:32;;;;;;;3.17;2.87;;;19.60;99.90;;;;;;5007801;28;20637;-68
2022/07/11 04:33:59;;;;;;;3.33;2.65;;;19.60;99.90;;;;;;5009581;28;20700;-68
2022/07/11 04:36:26;;;;;;;2.87;2.67;;;19.60;99.90;;;;;;5010121;28;20207;-67
2022/07/11 04:38:53;;;;;;;3.60;2.47;;;19.70;99.90;;;;;;5008205;28;21177;-68
2022/07/11 04:41:20;;;;;;;3.33;2.73;;;19.70;99.90;;;;;;5009505;28;20665;-68
2022/07/11 04:43:46;;;;;;;4.97;2.70;;;19.70;99.90;;;;;;5010550;28;21395;-67
2022/07/11 04:46:14;;;;;;;12.60;3.80;;;19.70;99.90;;;;;;5009375;28;21176;-67
2022/07/11 04:48:41;;;;;;;2.90;2.63;;;19.80;99.90;;;;;;5009436;28;21288;-68
2022/07/11 04:51:08;;;;;;;2.77;2.57;;;19.80;99.90;;;;;;5010251;28;21215;-68
2022/07/11 04:53:35;;;;;;;2.50;2.30;;;19.90;99.90;;;;;;5009185;28;20676;-68
2022/07/11 04:56:02;;;;;;;3.00;2.80;;;20.00;99.90;;;;;;5010104;28;20644;-68
2022/07/11 04:58:32;;;;;;;2.53;2.43;;;20.00;99.90;;;;;;5009524;28;20637;-67
2022/07/11 05:00:59;;;;;;;2.70;2.50;;;20.00;99.90;;;;;;5009147;28;20711;-68
2022/07/11 05:03:25;;;;;;;2.80;2.60;;;20.10;99.90;;;;;;5006553;28;20985;-66
2022/07/11 05:05:52;;;;;;;3.13;2.83;;;20.20;99.90;;;;;;5009072;28;20642;-67
2022/07/11 05:08:19;;;;;;;2.50;2.30;;;20.20;99.90;;;;;;5009881;28;20614;-67
2022/07/11 05:10:46;;;;;;;3.13;2.83;;;20.20;99.90;;;;;;5009477;28;20665;-67
2022/07/11 05:13:13;;;;;;;2.97;2.67;;;20.30;99.90;;;;;;5009920;28;21476;-67
2022/07/11 05:15:40;;;;;;;3.50;2.63;;;20.30;99.90;;;;;;5009661;28;21007;-67
2022/07/11 05:18:07;;;;;;;3.37;2.70;;;20.40;99.90;;;;;;5007579;28;20638;-67
2022/07/11 05:20:34;;;;;;;4.07;3.00;;;20.50;99.90;;;;;;5008869;28;20656;-69
2022/07/11 05:23:01;;;;;;;2.90;2.70;;;20.60;99.90;;;;;;5008558;28;20676;-68
2022/07/11 05:25:28;;;;;;;3.93;2.50;;;20.60;99.90;;;;;;5008868;28;20617;-69
2022/07/11 05:27:55;;;;;;;5.83;2.80;;;20.70;99.90;;;;;;5009101;28;20689;-68
2022/07/11 05:30:22;;;;;;;2.30;2.20;;;20.80;99.90;;;;;;5009325;28;21448;-68
2022/07/11 05:32:51;;;;;;;2.00;1.90;;;20.80;99.90;;;;;;5009812;28;20708;-64
2022/07/11 05:35:18;;;;;;;2.73;2.30;;;21.00;99.90;;;;;;5008971;28;20640;-69
2022/07/11 05:37:45;;;;;;;2.20;2.10;;;21.00;99.90;;;;;;5010403;28;20629;-68
2022/07/11 05:40:12;;;;;;;2.67;2.47;;;21.10;99.70;;;;;;5012268;28;20639;-67
2022/07/11 05:42:39;;;;;;;2.53;2.43;;;21.20;99.40;;;;;;5012801;28;20673;-68
2022/07/11 05:45:06;;;;;;;2.60;2.10;;;21.30;99.30;;;;;;5013023;28;20617;-69
2022/07/11 05:47:33;;;;;;;2.20;2.10;;;21.40;99.10;;;;;;5014051;28;20660;-69
2022/07/11 05:50:00;;;;;;;2.33;2.13;;;21.50;99.20;;;;;;5011896;28;20645;-68
2022/07/11 05:52:26;;;;;;;3.43;2.73;;;21.70;98.70;;;;;;5013206;28;20629;-72
2022/07/11 05:54:54;;;;;;;3.60;3.20;;;21.80;98.40;;;;;;5012463;28;20632;-68
2022/07/11 05:57:21;;;;;;;3.17;2.57;;;22.00;98.10;;;;;;5013329;28;20637;-71
2022/07/11 05:59:48;;;;;;;3.60;2.93;;;22.20;97.70;;;;;;5012480;28;20601;-69
2022/07/11 06:02:14;;;;;;;2.73;2.53;;;22.30;97.50;;;;;;5012052;28;21035;-72
2022/07/11 06:04:44;;;;;;;2.60;2.50;;;22.30;97.30;;;;;;5009564;28;20633;-69
2022/07/11 06:07:11;;;;;;;2.83;2.60;;;22.40;97.20;;;;;;5013116;28;20201;-68
2022/07/11 06:09:38;;;;;;;4.65;2.88;;;22.50;96.80;;;;;;5018735;28;20636;-68
2022/07/11 06:12:06;;;;;;;3.90;2.40;;;22.70;96.70;;;;;;5012650;28;20207;-73
2022/07/11 06:14:33;;;;;;;2.97;2.53;;;22.70;96.70;;;;;;5012777;28;20647;-68
2022/07/11 06:16:59;;;;;;;3.03;1.95;;;22.70;96.30;;;;;;5013020;28;20678;-69
2022/07/11 06:19:26;;;;;;;2.67;2.33;;;22.70;96.20;;;;;;5012685;28;20227;-71
2022/07/11 06:21:53;;;;;;;2.70;2.40;;;22.60;96.10;;;;;;5013520;28;20679;-68
2022/07/11 06:24:20;;;;;;;2.50;2.30;;;22.60;96.10;;;;;;5012214;28;20657;-68
2022/07/11 06:26:47;;;;;;;2.30;2.20;;;22.70;95.80;;;;;;5012135;28;20621;-70
2022/07/11 06:29:13;;;;;;;2.10;2.00;;;22.90;95.50;;;;;;5011255;28;20207;-70
2022/07/11 06:31:41;;;;;;;5.50;2.90;;;23.20;95.10;;;;;;5011135;28;20703;-68
2022/07/11 06:34:08;;;;;;;5.13;2.40;;;23.50;94.80;;;;;;5011865;28;21295;-69
2022/07/11 06:36:35;;;;;;;2.20;2.10;;;24.00;93.90;;;;;;5011268;28;20652;-69
2022/07/11 06:39:01;;;;;;;2.17;2.07;;;24.50;93.10;;;;;;5011658;28;21030;-70
2022/07/11 06:41:28;;;;;;;2.50;2.17;;;24.80;92.30;;;;;;5011320;28;20641;-68
2022/07/11 06:43:55;;;;;;;2.58;2.38;;;25.00;91.80;;;;;;5012568;28;21232;-68
2022/07/11 06:46:22;;;;;;;2.10;2.00;;;25.20;91.50;;;;;;5011447;28;20203;-69
2022/07/11 06:48:49;;;;;;;2.00;1.90;;;25.40;91.10;;;;;;5009741;28;21193;-69
2022/07/11 06:51:16;;;;;;;2.90;2.30;;;26.00;90.60;;;;;;5010246;28;20629;-71
2022/07/11 06:53:43;;;;;;;2.23;2.13;;;27.00;88.70;;;;;;5008431;28;20658;-70
2022/07/11 06:56:11;;;;;;;2.27;2.17;;;27.80;84.70;;;;;;5007243;28;20767;-68
2022/07/11 06:58:37;;;;;;;2.93;1.93;;;27.90;82.60;;;;;;5010716;28;20634;-68
2022/07/11 07:01:05;;;;;;;;;;;28.50;81.60;;;;;;5011825;28;20984;-71
2022/07/11 07:03:34;;;;;;;2.30;2.20;;;29.30;77.90;;;;;;5010345;28;20204;-68
2022/07/11 07:06:02;;;;;;;2.45;2.25;;;30.10;75.00;;;;;;5009724;28;24427;-67
2022/07/11 07:08:29;;;;;;;2.23;2.10;;;32.20;68.90;;;;;;5010803;28;20203;-71
2022/07/11 07:10:57;;;;;;;2.10;2.00;;;34.00;63.20;;;;;;5001606;28;20638;-73
2022/07/11 07:13:30;;;;;;;3.40;1.90;;;35.20;59.20;;;;;;4999312;28;24555;-71
2022/07/11 07:15:57;;;;;;;2.27;2.03;;;36.80;55.10;;;;;;5005360;28;20203;-72
2022/07/11 07:18:25;;;;;;;2.77;2.37;;;37.70;52.50;;;;;;5010467;28;20699;-66
2022/07/11 07:20:52;;;;;;;1.80;1.70;;;38.60;50.40;;;;;;5011044;28;20642;-69
2022/07/11 07:23:20;;;;;;;1.80;1.70;;;39.70;48.20;;;;;;5011198;28;20687;-69
2022/07/11 07:25:47;;;;;;;2.00;1.90;;;40.70;46.40;;;;;;5004548;28;20724;-74
2022/07/11 07:28:14;;;;;;;2.37;2.20;;;40.70;45.30;;;;;;5011099;28;20633;-69
2022/07/11 07:30:41;;;;;;;3.70;2.77;;;40.80;44.90;;;;;;5011397;28;20624;-72
2022/07/11 07:33:10;;;;;;;1.80;1.70;;;40.20;44.70;;;;;;5010816;28;20688;-68
2022/07/11 07:35:38;;;;;;;3.13;2.10;;;39.10;45.20;;;;;;5009581;28;20648;-69
2022/07/11 07:38:04;;;;;;;1.67;1.63;;;37.30;46.50;;;;;;5010131;28;20644;-69
2022/07/11 07:40:32;;;;;;;2.97;2.43;;;35.40;48.20;;;;;;5009751;28;20699;-68
2022/07/11 07:43:01;;;;;;;2.30;2.20;;;33.20;50.90;;;;;;5010914;28;20666;-72
2022/07/11 07:45:28;;;;;;;2.27;2.07;;;32.30;52.60;;;;;;5010589;28;20666;-69
2022/07/11 07:47:54;;;;;;;2.23;2.13;;;32.20;53.10;;;;;;5011014;28;20628;-69
2022/07/11 07:50:23;;;;;;;2.72;1.85;;;34.60;51.60;;;;;;5010012;28;20655;-71
2022/07/11 07:52:49;;;;;;;2.20;2.00;;;37.70;48.30;;;;;;5011792;28;20325;-71
2022/07/11 07:55:17;;;;;;;1.80;1.70;;;40.10;45.60;;;;;;4998603;28;20645;-67
2022/07/11 07:57:44;;;;;;;2.10;1.90;;;40.10;44.60;;;;;;5010255;28;20625;-67
2022/07/11 08:03:08;;;;;;;2.17;2.07;;;37.30;46.30;;;;;;5012675;28;20676;-66
2022/07/11 08:05:35;;;;;;;2.03;1.92;;;35.80;47.90;;;;;;4995327;28;20677;-67
2022/07/11 08:08:03;;;;;;;2.50;2.30;;;34.00;49.90;;;;;;5018136;28;20198;-67
2022/07/11 08:10:30;;;;;;;2.55;2.35;;;32.00;52.20;;;;;;5017656;28;21096;-67
2022/07/11 08:12:57;;;;;;;2.97;2.60;;;30.30;54.60;;;;;;5025014;28;20222;-66
2022/07/11 08:15:24;;;;;;;2.75;2.22;;;28.80;57.30;;;;;;5022570;28;20214;-68
2022/07/11 08:17:52;;;;;;;2.87;2.27;;;27.60;59.70;;;;;;5008591;28;20222;-67
2022/07/11 08:20:19;;;;;;;3.20;2.20;;;27.20;61.20;;;;;;5009620;28;20645;-66
2022/07/11 08:22:46;;;;;;;3.10;2.50;;;27.90;61.50;;;;;;5010018;28;20680;-67
2022/07/11 08:25:14;;;;;;;2.20;2.10;;;28.90;59.20;;;;;;5007096;28;20658;-63
2022/07/11 08:27:41;;;;;;;20.00;12.97;;;28.90;59.00;;;;;;5003844;28;20630;-65
2022/07/11 08:30:09;;;;;;;3.30;3.00;;;28.30;60.00;;;;;;5001355;28;21220;-65
2022/07/11 08:32:40;;;;;;;5.03;2.70;;;27.30;62.10;;;;;;5008503;28;20644;-67
2022/07/11 08:35:09;;;;;;;2.60;2.40;;;27.00;63.50;;;;;;5008624;28;21024;-67
2022/07/11 08:37:36;;;;;;;3.07;2.10;;;27.20;63.70;;;;;;5011284;28;21051;-67
2022/07/11 08:40:04;;;;;;;2.37;1.97;;;27.10;63.60;;;;;;5004120;28;20618;-66
2022/07/11 08:42:30;;;;;;;4.03;2.20;;;27.70;63.10;;;;;;4990010;28;21050;-67
2022/07/11 08:44:58;;;;;;;5.10;1.80;;;29.00;60.90;;;;;;5001891;28;20644;-66
2022/07/11 08:47:25;;;;;;;3.07;1.60;;;30.60;58.00;;;;;;5010688;28;20613;-67
2022/07/11 08:49:52;;;;;;;1.80;1.70;;;30.80;56.70;;;;;;5010233;28;20627;-67
2022/07/11 08:52:20;;;;;;;2.10;2.00;;;30.60;57.00;;;;;;5009376;28;20206;-67
2022/07/11 08:54:46;;;;;;;4.30;2.40;;;30.00;57.60;;;;;;5010925;28;20724;-66
2022/07/11 08:57:15;;;;;;;5.40;1.83;;;28.60;59.50;;;;;;5010536;28;20737;-66
2022/07/11 08:59:43;;;;;;;2.10;1.90;;;28.00;60.90;;;;;;5010015;28;20991;-67
2022/07/11 09:02:12;;;;;;;1.97;1.77;;;27.90;62.00;;;;;;5008177;28;21204;-67
2022/07/11 09:04:40;;;;;;;2.13;2.03;;;28.00;61.70;;;;;;5002975;28;20642;-67
2022/07/11 09:07:07;;;;;;;1.77;1.60;;;28.50;61.10;;;;;;5009124;28;20653;-64
2022/07/11 09:09:34;;;;;;;1.73;1.63;;;28.60;61.40;;;;;;5005383;28;20717;-67
2022/07/11 09:12:01;;;;;;;1.77;1.67;;;30.00;59.00;;;;;;5002955;28;20757;-66
2022/07/11 09:14:30;;;;;;;3.65;2.10;;;30.30;58.20;;;;;;5002921;28;20641;-67
2022/07/11 09:16:59;;;;;;;2.30;2.10;;;31.40;57.20;;;;;;5003851;28;20591;-69
2022/07/11 09:19:28;;;;;;;2.47;1.93;;;32.10;55.50;;;;;;5009961;28;20652;-67
2022/07/11 09:27:49;;;;;;;1.57;1.30;;;29.80;58.00;;;;;;5012600;28;20199;-67
2022/07/11 09:30:17;;;;;;;1.27;1.20;;;28.70;59.70;;;;;;5010477;28;20664;-67
2022/07/11 09:32:56;;;;;;;1.20;1.20;;;27.90;59.90;;;;;;5012604;28;20756;-67
2022/07/11 09:35:25;;;;;;;1.45;1.45;;;27.70;61.10;;;;;;5013659;28;20672;-66
2022/07/11 09:37:53;;;;;;;1.90;1.83;;;27.90;61.50;;;;;;5012228;28;20608;-68
2022/07/11 09:40:21;;;;;;;1.73;1.63;;;27.90;61.70;;;;;;5012226;28;20641;-67
2022/07/11 09:42:51;;;;;;;1.77;1.50;;;27.10;63.10;;;;;;5012707;28;20676;-67
2022/07/11 09:45:24;;;;;;;1.60;1.60;;;26.90;63.90;;;;;;5012293;28;20751;-68
2022/07/11 09:47:52;;;;;;;1.40;1.40;;;29.90;59.60;;;;;;5009317;28;20713;-68
2022/07/11 09:50:24;;;;;;;1.77;1.67;;;33.60;54.20;;;;;;5005464;28;20633;-68
2022/07/11 09:53:15;;;;;;;2.27;1.73;;;34.40;52.20;;;;;;5013945;28;21271;-67
2022/07/11 09:55:46;;;;;;;2.63;2.20;;;34.70;51.60;;;;;;5012957;28;20613;-67
2022/07/11 09:58:18;;;;;;;2.53;2.00;;;36.30;49.70;;;;;;5005656;28;20622;-68
2022/07/11 10:00:45;;;;;;;2.23;2.13;;;39.40;47.60;;;;;;5003648;28;21216;-68
2022/07/11 10:03:12;;;;;;;2.10;2.00;;;41.60;44.00;;;;;;5016775;28;20717;-67
2022/07/11 10:06:00;;;;;;;2.87;2.27;;;40.90;43.40;;;;;;5006370;28;20624;-68
2022/07/11 10:08:27;;;;;;;2.53;2.30;;;38.00;45.30;;;;;;5013206;28;20632;-67
2022/07/11 10:10:54;;;;;;;4.45;2.65;;;35.70;47.60;;;;;;5013688;28;20621;-68
2022/07/11 10:13:21;;;;;;;3.17;2.97;;;33.80;49.70;;;;;;5013308;28;20226;-66
2022/07/11 10:15:48;;;;;;;4.67;4.27;;;32.20;51.80;;;;;;5013095;28;20632;-66
2022/07/11 10:18:40;;;;;;;8.45;7.53;;;32.40;52.50;;;;;;5013009;28;20627;-62
2022/07/11 10:21:14;;;;;;;3.40;3.20;;;33.30;51.40;;;;;;5011632;28;20210;-68
2022/07/11 10:23:54;;;;;;;2.83;2.63;;;32.90;51.60;;;;;;5013242;28;20717;-68
2022/07/11 10:26:53;;;;;;;2.33;2.23;;;31.20;53.70;;;;;;5013608;28;20630;-67
2022/07/11 10:29:27;;;;;;;2.70;2.50;;;30.10;55.40;;;;;;5012982;28;20693;-67
2022/07/11 10:32:08;;;;;;;3.17;2.80;;;29.70;56.50;;;;;;5013795;28;20617;-67
2022/07/11 10:34:39;;;;;;;3.07;2.87;;;29.00;57.50;;;;;;5013321;28;20711;-67
2022/07/11 10:37:08;;;;;;;4.80;3.63;;;28.60;58.60;;;;;;5013104;28;20630;-67
2022/07/11 10:39:36;;;;;;;3.07;2.87;;;28.70;58.80;;;;;;5012680;28;20721;-67
2022/07/11 10:42:05;;;;;;;2.80;2.60;;;28.40;58.30;;;;;;5013230;28;20666;-68
2022/07/11 10:45:11;;;;;;;3.63;3.40;;;28.60;58.60;;;;;;5012856;28;20684;-68
2022/07/11 10:47:42;;;;;;;4.40;4.00;;;28.50;59.00;;;;;;4970303;28;24464;-68
2022/07/11 10:50:41;;;;;;;4.43;4.03;;;28.60;59.50;;;;;;5008505;28;24516;-67
2022/07/11 10:53:09;;;;;;;5.30;4.30;;;28.60;59.90;;;;;;5011361;28;24428;-68
2022/07/11 10:55:52;;;;;;;5.38;4.38;;;28.40;59.90;;;;;;5011370;28;25232;-68
2022/07/11 10:58:23;;;;;;;4.60;4.20;;;28.10;60.50;;;;;;5010985;28;24980;-67
2022/07/11 11:01:10;;;;;;;6.00;4.05;;;28.30;60.50;;;;;;5011454;28;24529;-67
2022/07/11 11:03:39;;;;;;;4.97;4.30;;;28.50;60.30;;;;;;5011242;28;24544;-68
2022/07/11 11:06:06;;;;;;;4.60;4.20;;;28.40;60.00;;;;;;5013350;28;24443;-66
2022/07/11 11:08:34;;;;;;;7.93;7.15;;;28.30;60.00;;;;;;5010041;28;24428;-64
2022/07/11 11:11:05;;;;;;;8.25;7.45;;;28.30;59.50;;;;;;5010197;28;24452;-67
2022/07/11 11:13:36;;;;;;;5.32;4.50;;;28.10;60.20;;;;;;5010579;28;24479;-65
2022/07/11 11:16:22;;;;;;;6.07;5.20;;;27.80;61.20;;;;;;5009865;28;24428;-67
2022/07/11 11:18:49;;;;;;;6.43;5.43;;;27.60;61.30;;;;;;5010681;28;24421;-67
2022/07/11 11:21:21;;;;;;;5.80;5.20;;;27.40;61.80;;;;;;5009633;28;24483;-62
2022/07/11 11:24:00;;;;;;;5.03;4.53;;;27.30;61.80;;;;;;5008647;28;25086;-65
2022/07/11 11:26:43;;;;;;;5.28;4.50;;;27.60;61.90;;;;;;5010658;28;25006;-65
2022/07/11 11:29:10;;;;;;;4.38;3.97;;;27.80;60.80;;;;;;5010636;28;24428;-65
2022/07/11 11:31:37;;;;;;;3.90;3.60;;;27.90;60.40;;;;;;5011063;28;24424;-65
2022/07/11 11:34:04;;;;;;;3.90;3.60;;;28.00;59.20;;;;;;5032357;22;24571;-65
2022/07/11 11:36:31;;;;;;;5.88;4.20;;;27.90;59.40;;;;;;5029220;28;24983;-66
2022/07/11 11:38:58;;;;;;;5.22;4.40;;;27.90;60.80;;;;;;5028400;28;24519;-66
2022/07/11 11:41:31;;;;;;;4.50;4.20;;;27.80;60.70;;;;;;5029695;28;24435;-67
2022/07/11 11:44:01;;;;;;;4.80;4.33;;;27.70;60.80;;;;;;5022195;28;24547;-66
2022/07/11 11:46:29;;;;;;;5.50;4.50;;;27.70;60.70;;;;;;5010119;28;24434;-66
2022/07/11 11:48:58;;;;;;;4.50;4.10;;;27.70;61.10;;;;;;5008680;28;24428;-66
2022/07/11 11:51:30;;;;;;;4.70;4.30;;;27.70;60.90;;;;;;5008959;28;24450;-66
2022/07/11 11:53:59;;;;;;;4.90;4.40;;;27.80;60.50;;;;;;5009958;28;24443;-66
2022/07/11 11:56:34;;;;;;;4.40;4.00;;;28.00;60.10;;;;;;5009954;28;24959;-66
2022/07/11 11:59:04;;;;;;;4.40;4.00;;;28.30;59.30;;;;;;5009463;28;24462;-66
2022/07/11 12:01:37;;;;;;;4.60;4.20;;;28.50;59.40;;;;;;5008610;28;24944;-66
2022/07/11 12:04:08;;;;;;;5.68;4.55;;;28.40;59.30;;;;;;5005599;28;25062;-66
2022/07/11 12:06:36;;;;;;;4.77;4.37;;;28.30;59.60;;;;;;5012488;28;24428;-66
2022/07/11 12:09:06;;;;;;;4.40;4.00;;;28.10;59.90;;;;;;5009143;28;24544;-67
2022/07/11 12:11:35;;;;;;;4.20;3.80;;;27.80;60.30;;;;;;5009660;28;24527;-66
2022/07/11 12:14:07;;;;;;;4.30;4.00;;;27.40;60.50;;;;;;5009545;28;24460;-67
2022/07/11 12:16:41;;;;;;;4.40;4.00;;;27.20;61.30;;;;;;5009731;28;24439;-66
2022/07/11 12:19:18;;;;;;;3.50;3.30;;;27.00;62.00;;;;;;5009287;28;24528;-66
2022/07/11 12:21:47;;;;;;;3.33;3.13;;;27.30;61.00;;;;;;5009555;28;24737;-66
2022/07/11 12:24:22;;;;;;;3.30;3.00;;;27.40;60.70;;;;;;5007843;28;24995;-68
2022/07/11 12:26:49;;;;;;;3.40;3.20;;;27.50;60.30;;;;;;5008580;28;24868;-67
2022/07/11 12:29:22;;;;;;;3.42;3.22;;;27.70;60.30;;;;;;5008611;28;24515;-67
2022/07/11 12:31:54;;;;;;;4.03;3.60;;;27.80;60.30;;;;;;4999458;28;24455;-67
2022/07/11 12:34:23;;;;;;;3.90;3.60;;;27.90;60.50;;;;;;4998487;28;24543;-66
2022/07/11 12:36:51;;;;;;;4.00;3.30;;;27.70;60.60;;;;;;5000195;28;25029;-66
2022/07/11 12:39:23;;;;;;;3.90;3.40;;;27.50;60.80;;;;;;5007326;28;24448;-66
2022/07/11 12:41:54;;;;;;;4.22;3.83;;;27.40;61.00;;;;;;5008911;28;24524;-67
2022/07/11 12:47:24;;;;;;;3.60;3.30;;;27.30;61.20;;;;;;5010336;28;24444;-67
2022/07/11 12:49:51;;;;;;;3.50;3.30;;;27.30;61.20;;;;;;5006810;28;24440;-66
2022/07/11 12:52:18;;;;;;;3.20;3.00;;;27.30;61.60;;;;;;5011224;28;24441;-65
2022/07/11 12:54:45;;;;;;;3.00;2.80;;;27.30;62.00;;;;;;5012403;28;24455;-67
2022/07/11 12:57:20;;;;;;;5.40;3.60;;;27.20;62.60;;;;;;5012719;28;24423;-64
2022/07/11 12:59:48;;;;;;;3.50;3.30;;;27.30;61.90;;;;;;5012454;28;24644;-66
2022/07/11 13:02:15;;;;;;;3.30;3.10;;;27.20;61.70;;;;;;5012672;28;24974;-67
2022/07/11 13:04:49;;;;;;;3.70;3.30;;;27.50;61.70;;;;;;5009949;28;25031;-66
2022/07/11 13:10:24;;;;;;;3.17;2.97;;;27.90;60.10;;;;;;5010803;28;24599;-65
2022/07/11 13:12:52;;;;;;;4.75;3.60;;;28.10;60.40;;;;;;5012963;28;24523;-65